sensor_id;sensor_type;location;lat;lon;timestamp;P1;durP1;ratioP1;P2;durP2;ratioP2
79624;SDS011;69101;45.534;10.218;2023-05-21T00:00:24;12.05;;;5.60;;
79624;SDS011;69101;45.534;10.218;2023-05-21T00:02:49;12.13;;;5.65;;
79624;SDS011;69101;45.534;10.218;2023-05-21T00:05:15;11.48;;;5.50;;
79624;SDS011;69101;45.534;10.218;2023-05-21T00:07:42;12.18;;;5.47;;
79624;SDS011;69101;45.534;10.218;2023-05-21T00:10:08;11.98;;;5.57;;
79624;SDS011;69101;45.534;10.218;2023-05-21T00:12:34;12.38;;;5.78;;
79624;SDS011;69101;45.534;10.218;2023-05-21T00:14:59;11.75;;;5.60;;
79624;SDS011;69101;45.534;10.218;2023-05-21T00:17:25;11.68;;;5.55;;
79624;SDS011;69101;45.534;10.218;2023-05-21T00:19:52;11.80;;;5.70;;
79624;SDS011;69101;45.534;10.218;2023-05-21T00:22:18;11.85;;;5.45;;
79624;SDS011;69101;45.534;10.218;2023-05-21T00:24:44;11.85;;;5.38;;
79624;SDS011;69101;45.534;10.218;2023-05-21T00:27:10;11.02;;;5.20;;
79624;SDS011;69101;45.534;10.218;2023-05-21T00:29:36;11.88;;;5.50;;
79624;SDS011;69101;45.534;10.218;2023-05-21T00:32:01;11.98;;;5.53;;
79624;SDS011;69101;45.534;10.218;2023-05-21T00:34:27;11.70;;;5.40;;
79624;SDS011;69101;45.534;10.218;2023-05-21T00:36:53;12.40;;;5.75;;
79624;SDS011;69101;45.534;10.218;2023-05-21T00:39:19;11.80;;;5.50;;
79624;SDS011;69101;45.534;10.218;2023-05-21T00:41:45;13.02;;;6.20;;
79624;SDS011;69101;45.534;10.218;2023-05-21T00:44:12;12.88;;;5.55;;
79624;SDS011;69101;45.534;10.218;2023-05-21T00:46:38;11.38;;;5.57;;
79624;SDS011;69101;45.534;10.218;2023-05-21T00:49:05;12.15;;;5.57;;
79624;SDS011;69101;45.534;10.218;2023-05-21T00:51:30;12.15;;;5.72;;
79624;SDS011;69101;45.534;10.218;2023-05-21T00:53:56;12.05;;;5.57;;
79624;SDS011;69101;45.534;10.218;2023-05-21T00:56:23;11.93;;;6.18;;
79624;SDS011;69101;45.534;10.218;2023-05-21T00:58:50;12.88;;;6.10;;
79624;SDS011;69101;45.534;10.218;2023-05-21T01:01:16;11.75;;;5.35;;
79624;SDS011;69101;45.534;10.218;2023-05-21T01:03:42;12.18;;;6.10;;
79624;SDS011;69101;45.534;10.218;2023-05-21T01:06:08;12.63;;;6.30;;
79624;SDS011;69101;45.534;10.218;2023-05-21T01:08:34;12.25;;;6.15;;
79624;SDS011;69101;45.534;10.218;2023-05-21T01:11:02;11.70;;;5.70;;
79624;SDS011;69101;45.534;10.218;2023-05-21T01:13:30;12.93;;;6.15;;
79624;SDS011;69101;45.534;10.218;2023-05-21T01:15:58;12.43;;;6.10;;
79624;SDS011;69101;45.534;10.218;2023-05-21T01:18:24;13.20;;;6.35;;
79624;SDS011;69101;45.534;10.218;2023-05-21T01:20:50;12.00;;;5.85;;
79624;SDS011;69101;45.534;10.218;2023-05-21T01:23:16;12.02;;;5.90;;
79624;SDS011;69101;45.534;10.218;2023-05-21T01:25:43;11.60;;;5.63;;
79624;SDS011;69101;45.534;10.218;2023-05-21T01:28:09;12.18;;;5.97;;
79624;SDS011;69101;45.534;10.218;2023-05-21T01:30:34;12.38;;;5.72;;
79624;SDS011;69101;45.534;10.218;2023-05-21T01:33:02;13.10;;;5.75;;
79624;SDS011;69101;45.534;10.218;2023-05-21T01:35:32;11.73;;;5.82;;
79624;SDS011;69101;45.534;10.218;2023-05-21T01:41:10;11.90;;;5.68;;
79624;SDS011;69101;45.534;10.218;2023-05-21T01:43:38;11.40;;;5.53;;
79624;SDS011;69101;45.534;10.218;2023-05-21T01:46:06;12.10;;;5.63;;
79624;SDS011;69101;45.534;10.218;2023-05-21T01:48:33;11.48;;;5.65;;
79624;SDS011;69101;45.534;10.218;2023-05-21T01:51:01;12.07;;;5.60;;
79624;SDS011;69101;45.534;10.218;2023-05-21T01:53:28;12.48;;;5.63;;
79624;SDS011;69101;45.534;10.218;2023-05-21T01:55:53;12.82;;;5.70;;
79624;SDS011;69101;45.534;10.218;2023-05-21T01:58:19;11.45;;;5.50;;
79624;SDS011;69101;45.534;10.218;2023-05-21T02:00:45;11.70;;;5.30;;
79624;SDS011;69101;45.534;10.218;2023-05-21T02:03:11;12.25;;;5.47;;
79624;SDS011;69101;45.534;10.218;2023-05-21T02:05:38;11.80;;;5.53;;
79624;SDS011;69101;45.534;10.218;2023-05-21T02:08:03;11.48;;;5.68;;
79624;SDS011;69101;45.534;10.218;2023-05-21T02:10:29;11.68;;;5.53;;
79624;SDS011;69101;45.534;10.218;2023-05-21T02:12:54;11.50;;;5.50;;
79624;SDS011;69101;45.534;10.218;2023-05-21T02:15:20;11.82;;;5.60;;
79624;SDS011;69101;45.534;10.218;2023-05-21T02:17:46;11.55;;;5.60;;
79624;SDS011;69101;45.534;10.218;2023-05-21T02:20:11;11.48;;;5.60;;
79624;SDS011;69101;45.534;10.218;2023-05-21T02:22:38;12.00;;;5.95;;
79624;SDS011;69101;45.534;10.218;2023-05-21T02:25:04;11.70;;;5.95;;
79624;SDS011;69101;45.534;10.218;2023-05-21T02:27:32;12.02;;;6.00;;
79624;SDS011;69101;45.534;10.218;2023-05-21T02:29:59;12.05;;;6.03;;
79624;SDS011;69101;45.534;10.218;2023-05-21T02:32:24;12.63;;;5.63;;
79624;SDS011;69101;45.534;10.218;2023-05-21T02:34:50;11.88;;;5.82;;
79624;SDS011;69101;45.534;10.218;2023-05-21T02:37:15;12.95;;;6.10;;
79624;SDS011;69101;45.534;10.218;2023-05-21T02:39:41;12.52;;;5.53;;
79624;SDS011;69101;45.534;10.218;2023-05-21T02:42:07;11.80;;;5.63;;
79624;SDS011;69101;45.534;10.218;2023-05-21T02:44:32;12.32;;;5.60;;
79624;SDS011;69101;45.534;10.218;2023-05-21T02:46:57;11.55;;;5.57;;
79624;SDS011;69101;45.534;10.218;2023-05-21T02:49:23;12.35;;;5.70;;
79624;SDS011;69101;45.534;10.218;2023-05-21T02:51:48;11.85;;;5.32;;
79624;SDS011;69101;45.534;10.218;2023-05-21T02:54:13;13.32;;;5.85;;
79624;SDS011;69101;45.534;10.218;2023-05-21T02:56:39;12.77;;;6.53;;
79624;SDS011;69101;45.534;10.218;2023-05-21T02:59:04;12.68;;;5.90;;
79624;SDS011;69101;45.534;10.218;2023-05-21T03:01:30;12.85;;;5.75;;
79624;SDS011;69101;45.534;10.218;2023-05-21T03:03:55;12.60;;;5.95;;
79624;SDS011;69101;45.534;10.218;2023-05-21T03:06:20;12.18;;;5.97;;
79624;SDS011;69101;45.534;10.218;2023-05-21T03:08:46;13.30;;;6.45;;
79624;SDS011;69101;45.534;10.218;2023-05-21T03:11:11;12.60;;;6.70;;
79624;SDS011;69101;45.534;10.218;2023-05-21T03:13:37;14.40;;;6.28;;
79624;SDS011;69101;45.534;10.218;2023-05-21T03:16:02;13.77;;;6.20;;
79624;SDS011;69101;45.534;10.218;2023-05-21T03:18:28;12.43;;;6.28;;
79624;SDS011;69101;45.534;10.218;2023-05-21T03:20:53;12.32;;;6.07;;
79624;SDS011;69101;45.534;10.218;2023-05-21T03:23:18;12.57;;;5.95;;
79624;SDS011;69101;45.534;10.218;2023-05-21T03:25:44;12.02;;;6.00;;
79624;SDS011;69101;45.534;10.218;2023-05-21T03:28:10;12.63;;;6.13;;
79624;SDS011;69101;45.534;10.218;2023-05-21T03:30:35;13.48;;;6.60;;
79624;SDS011;69101;45.534;10.218;2023-05-21T03:33:02;13.07;;;6.35;;
79624;SDS011;69101;45.534;10.218;2023-05-21T03:35:28;12.52;;;6.28;;
79624;SDS011;69101;45.534;10.218;2023-05-21T03:37:54;13.80;;;7.13;;
79624;SDS011;69101;45.534;10.218;2023-05-21T03:40:20;12.82;;;6.32;;
79624;SDS011;69101;45.534;10.218;2023-05-21T03:42:46;12.43;;;6.25;;
79624;SDS011;69101;45.534;10.218;2023-05-21T03:45:11;12.82;;;6.63;;
79624;SDS011;69101;45.534;10.218;2023-05-21T03:47:37;12.20;;;6.43;;
79624;SDS011;69101;45.534;10.218;2023-05-21T03:50:02;12.95;;;6.18;;
79624;SDS011;69101;45.534;10.218;2023-05-21T03:52:29;12.88;;;6.35;;
79624;SDS011;69101;45.534;10.218;2023-05-21T03:54:55;12.52;;;6.30;;
79624;SDS011;69101;45.534;10.218;2023-05-21T03:57:20;12.18;;;6.22;;
79624;SDS011;69101;45.534;10.218;2023-05-21T03:59:45;12.30;;;6.22;;
79624;SDS011;69101;45.534;10.218;2023-05-21T04:02:11;11.95;;;5.78;;
79624;SDS011;69101;45.534;10.218;2023-05-21T04:04:36;12.68;;;6.32;;
79624;SDS011;69101;45.534;10.218;2023-05-21T04:07:01;13.32;;;6.47;;
79624;SDS011;69101;45.534;10.218;2023-05-21T04:09:28;12.95;;;6.55;;
79624;SDS011;69101;45.534;10.218;2023-05-21T04:11:54;12.77;;;6.80;;
79624;SDS011;69101;45.534;10.218;2023-05-21T04:14:19;11.85;;;5.95;;
79624;SDS011;69101;45.534;10.218;2023-05-21T04:16:46;13.57;;;6.95;;
79624;SDS011;69101;45.534;10.218;2023-05-21T04:19:13;14.15;;;6.65;;
79624;SDS011;69101;45.534;10.218;2023-05-21T04:21:38;12.77;;;5.97;;
79624;SDS011;69101;45.534;10.218;2023-05-21T04:24:04;12.20;;;6.07;;
79624;SDS011;69101;45.534;10.218;2023-05-21T04:26:29;13.13;;;6.70;;
79624;SDS011;69101;45.534;10.218;2023-05-21T04:28:57;12.13;;;6.30;;
79624;SDS011;69101;45.534;10.218;2023-05-21T04:31:23;12.85;;;6.22;;
79624;SDS011;69101;45.534;10.218;2023-05-21T04:33:48;13.40;;;6.97;;
79624;SDS011;69101;45.534;10.218;2023-05-21T04:36:14;13.35;;;6.20;;
79624;SDS011;69101;45.534;10.218;2023-05-21T04:38:41;12.95;;;6.35;;
79624;SDS011;69101;45.534;10.218;2023-05-21T04:41:06;13.65;;;6.60;;
79624;SDS011;69101;45.534;10.218;2023-05-21T04:43:34;12.48;;;6.22;;
79624;SDS011;69101;45.534;10.218;2023-05-21T04:46:00;12.13;;;6.22;;
79624;SDS011;69101;45.534;10.218;2023-05-21T04:48:26;12.35;;;6.25;;
79624;SDS011;69101;45.534;10.218;2023-05-21T04:50:52;12.98;;;6.22;;
79624;SDS011;69101;45.534;10.218;2023-05-21T04:53:19;12.85;;;6.40;;
79624;SDS011;69101;45.534;10.218;2023-05-21T04:55:46;14.00;;;7.00;;
79624;SDS011;69101;45.534;10.218;2023-05-21T04:58:11;12.52;;;5.93;;
79624;SDS011;69101;45.534;10.218;2023-05-21T05:00:37;12.32;;;6.22;;
79624;SDS011;69101;45.534;10.218;2023-05-21T05:03:04;12.82;;;6.28;;
79624;SDS011;69101;45.534;10.218;2023-05-21T05:05:29;13.60;;;6.22;;
79624;SDS011;69101;45.534;10.218;2023-05-21T05:07:55;14.07;;;6.30;;
79624;SDS011;69101;45.534;10.218;2023-05-21T05:10:22;14.88;;;6.53;;
79624;SDS011;69101;45.534;10.218;2023-05-21T05:12:47;11.80;;;6.07;;
79624;SDS011;69101;45.534;10.218;2023-05-21T05:15:12;11.90;;;6.00;;
79624;SDS011;69101;45.534;10.218;2023-05-21T05:17:38;13.20;;;5.95;;
79624;SDS011;69101;45.534;10.218;2023-05-21T05:20:04;11.85;;;5.90;;
79624;SDS011;69101;45.534;10.218;2023-05-21T05:22:31;13.27;;;6.25;;
79624;SDS011;69101;45.534;10.218;2023-05-21T05:24:56;12.75;;;6.60;;
79624;SDS011;69101;45.534;10.218;2023-05-21T05:27:22;11.73;;;5.70;;
79624;SDS011;69101;45.534;10.218;2023-05-21T05:29:47;12.18;;;5.85;;
79624;SDS011;69101;45.534;10.218;2023-05-21T05:32:12;11.63;;;6.03;;
79624;SDS011;69101;45.534;10.218;2023-05-21T05:34:38;14.50;;;6.53;;
79624;SDS011;69101;45.534;10.218;2023-05-21T05:37:03;13.23;;;6.15;;
79624;SDS011;69101;45.534;10.218;2023-05-21T05:39:29;12.65;;;6.68;;
79624;SDS011;69101;45.534;10.218;2023-05-21T05:41:54;12.30;;;6.45;;
79624;SDS011;69101;45.534;10.218;2023-05-21T05:44:20;12.20;;;6.45;;
79624;SDS011;69101;45.534;10.218;2023-05-21T05:46:45;12.02;;;5.90;;
79624;SDS011;69101;45.534;10.218;2023-05-21T05:49:10;11.75;;;6.03;;
79624;SDS011;69101;45.534;10.218;2023-05-21T05:51:37;11.85;;;5.90;;
79624;SDS011;69101;45.534;10.218;2023-05-21T05:54:02;12.73;;;6.35;;
79624;SDS011;69101;45.534;10.218;2023-05-21T05:56:28;12.95;;;6.70;;
79624;SDS011;69101;45.534;10.218;2023-05-21T05:58:53;13.10;;;6.25;;
79624;SDS011;69101;45.534;10.218;2023-05-21T06:01:18;12.07;;;5.78;;
79624;SDS011;69101;45.534;10.218;2023-05-21T06:03:46;11.85;;;5.85;;
79624;SDS011;69101;45.534;10.218;2023-05-21T06:06:11;12.30;;;5.90;;
79624;SDS011;69101;45.534;10.218;2023-05-21T06:08:37;12.20;;;6.15;;
79624;SDS011;69101;45.534;10.218;2023-05-21T06:11:04;11.63;;;5.78;;
79624;SDS011;69101;45.534;10.218;2023-05-21T06:13:29;11.73;;;6.10;;
79624;SDS011;69101;45.534;10.218;2023-05-21T06:15:55;12.20;;;5.80;;
79624;SDS011;69101;45.534;10.218;2023-05-21T06:18:21;11.82;;;5.85;;
79624;SDS011;69101;45.534;10.218;2023-05-21T06:20:46;11.88;;;6.15;;
79624;SDS011;69101;45.534;10.218;2023-05-21T06:23:11;12.02;;;5.88;;
79624;SDS011;69101;45.534;10.218;2023-05-21T06:25:37;12.75;;;6.45;;
79624;SDS011;69101;45.534;10.218;2023-05-21T06:28:04;12.65;;;6.25;;
79624;SDS011;69101;45.534;10.218;2023-05-21T06:30:30;12.80;;;6.18;;
79624;SDS011;69101;45.534;10.218;2023-05-21T06:32:55;12.93;;;6.20;;
79624;SDS011;69101;45.534;10.218;2023-05-21T06:35:21;12.07;;;6.30;;
79624;SDS011;69101;45.534;10.218;2023-05-21T06:37:47;12.30;;;6.20;;
79624;SDS011;69101;45.534;10.218;2023-05-21T06:40:13;12.13;;;6.47;;
79624;SDS011;69101;45.534;10.218;2023-05-21T06:42:38;12.25;;;5.95;;
79624;SDS011;69101;45.534;10.218;2023-05-21T06:45:04;12.48;;;6.00;;
79624;SDS011;69101;45.534;10.218;2023-05-21T06:47:29;12.27;;;6.25;;
79624;SDS011;69101;45.534;10.218;2023-05-21T06:49:55;12.00;;;6.22;;
79624;SDS011;69101;45.534;10.218;2023-05-21T06:52:20;12.45;;;6.20;;
79624;SDS011;69101;45.534;10.218;2023-05-21T06:54:45;12.23;;;6.80;;
79624;SDS011;69101;45.534;10.218;2023-05-21T06:57:12;13.32;;;6.25;;
79624;SDS011;69101;45.534;10.218;2023-05-21T06:59:39;13.32;;;6.65;;
79624;SDS011;69101;45.534;10.218;2023-05-21T07:02:04;12.50;;;6.25;;
79624;SDS011;69101;45.534;10.218;2023-05-21T07:04:30;12.10;;;6.07;;
79624;SDS011;69101;45.534;10.218;2023-05-21T07:06:55;13.75;;;6.53;;
79624;SDS011;69101;45.534;10.218;2023-05-21T07:09:21;14.50;;;6.68;;
79624;SDS011;69101;45.534;10.218;2023-05-21T07:11:47;14.80;;;6.40;;
79624;SDS011;69101;45.534;10.218;2023-05-21T07:14:12;12.45;;;6.40;;
79624;SDS011;69101;45.534;10.218;2023-05-21T07:16:37;12.73;;;6.57;;
79624;SDS011;69101;45.534;10.218;2023-05-21T07:19:03;12.48;;;6.85;;
79624;SDS011;69101;45.534;10.218;2023-05-21T07:21:28;12.90;;;6.35;;
79624;SDS011;69101;45.534;10.218;2023-05-21T07:23:54;12.57;;;6.38;;
79624;SDS011;69101;45.534;10.218;2023-05-21T07:26:20;13.32;;;6.80;;
79624;SDS011;69101;45.534;10.218;2023-05-21T07:28:45;12.55;;;6.45;;
79624;SDS011;69101;45.534;10.218;2023-05-21T07:31:11;12.80;;;6.75;;
79624;SDS011;69101;45.534;10.218;2023-05-21T07:33:37;11.75;;;6.35;;
79624;SDS011;69101;45.534;10.218;2023-05-21T07:36:02;12.23;;;6.13;;
79624;SDS011;69101;45.534;10.218;2023-05-21T07:38:28;12.02;;;6.00;;
79624;SDS011;69101;45.534;10.218;2023-05-21T07:40:54;12.13;;;6.22;;
79624;SDS011;69101;45.534;10.218;2023-05-21T07:43:20;13.35;;;6.55;;
79624;SDS011;69101;45.534;10.218;2023-05-21T07:45:46;13.45;;;6.78;;
79624;SDS011;69101;45.534;10.218;2023-05-21T07:48:11;12.82;;;6.47;;
79624;SDS011;69101;45.534;10.218;2023-05-21T07:50:37;12.63;;;5.80;;
79624;SDS011;69101;45.534;10.218;2023-05-21T07:53:03;12.55;;;5.90;;
79624;SDS011;69101;45.534;10.218;2023-05-21T07:55:28;12.30;;;6.38;;
79624;SDS011;69101;45.534;10.218;2023-05-21T07:57:53;12.80;;;6.10;;
79624;SDS011;69101;45.534;10.218;2023-05-21T08:00:21;11.98;;;6.32;;
79624;SDS011;69101;45.534;10.218;2023-05-21T08:02:47;12.13;;;6.13;;
79624;SDS011;69101;45.534;10.218;2023-05-21T08:05:13;13.15;;;6.93;;
79624;SDS011;69101;45.534;10.218;2023-05-21T08:07:40;12.73;;;6.57;;
79624;SDS011;69101;45.534;10.218;2023-05-21T08:10:05;12.90;;;6.80;;
79624;SDS011;69101;45.534;10.218;2023-05-21T08:12:31;13.82;;;6.60;;
79624;SDS011;69101;45.534;10.218;2023-05-21T08:14:56;12.10;;;6.20;;
79624;SDS011;69101;45.534;10.218;2023-05-21T08:17:23;13.35;;;6.80;;
79624;SDS011;69101;45.534;10.218;2023-05-21T08:19:48;12.57;;;6.68;;
79624;SDS011;69101;45.534;10.218;2023-05-21T08:22:14;12.70;;;6.70;;
79624;SDS011;69101;45.534;10.218;2023-05-21T08:24:39;15.40;;;6.90;;
79624;SDS011;69101;45.534;10.218;2023-05-21T08:27:05;12.85;;;6.70;;
79624;SDS011;69101;45.534;10.218;2023-05-21T08:29:31;14.07;;;7.05;;
79624;SDS011;69101;45.534;10.218;2023-05-21T08:31:57;13.48;;;7.53;;
79624;SDS011;69101;45.534;10.218;2023-05-21T08:34:22;12.85;;;6.80;;
79624;SDS011;69101;45.534;10.218;2023-05-21T08:36:48;13.73;;;7.50;;
79624;SDS011;69101;45.534;10.218;2023-05-21T08:39:17;12.25;;;6.65;;
79624;SDS011;69101;45.534;10.218;2023-05-21T08:41:43;13.50;;;7.57;;
79624;SDS011;69101;45.534;10.218;2023-05-21T08:44:13;14.15;;;7.63;;
79624;SDS011;69101;45.534;10.218;2023-05-21T08:46:40;13.82;;;7.47;;
79624;SDS011;69101;45.534;10.218;2023-05-21T08:49:10;14.18;;;7.72;;
79624;SDS011;69101;45.534;10.218;2023-05-21T08:51:37;14.07;;;7.63;;
79624;SDS011;69101;45.534;10.218;2023-05-21T08:54:03;15.93;;;8.50;;
79624;SDS011;69101;45.534;10.218;2023-05-21T08:56:33;13.93;;;7.28;;
79624;SDS011;69101;45.534;10.218;2023-05-21T08:58:59;14.60;;;7.97;;
79624;SDS011;69101;45.534;10.218;2023-05-21T09:01:26;12.98;;;7.35;;
79624;SDS011;69101;45.534;10.218;2023-05-21T09:03:52;12.93;;;6.82;;
79624;SDS011;69101;45.534;10.218;2023-05-21T09:06:21;13.43;;;7.30;;
79624;SDS011;69101;45.534;10.218;2023-05-21T09:08:48;13.10;;;7.15;;
79624;SDS011;69101;45.534;10.218;2023-05-21T09:11:23;13.35;;;6.15;;
79624;SDS011;69101;45.534;10.218;2023-05-21T09:13:49;12.85;;;6.82;;
79624;SDS011;69101;45.534;10.218;2023-05-21T09:16:17;12.23;;;6.10;;
79624;SDS011;69101;45.534;10.218;2023-05-21T09:18:42;12.52;;;6.20;;
79624;SDS011;69101;45.534;10.218;2023-05-21T09:21:41;13.55;;;6.68;;
79624;SDS011;69101;45.534;10.218;2023-05-21T09:23:59;11.88;;;6.15;;
79624;SDS011;69101;45.534;10.218;2023-05-21T09:26:26;11.60;;;5.70;;
79624;SDS011;69101;45.534;10.218;2023-05-21T09:28:54;12.45;;;6.40;;
79624;SDS011;69101;45.534;10.218;2023-05-21T09:31:24;12.75;;;6.10;;
79624;SDS011;69101;45.534;10.218;2023-05-21T09:33:50;12.88;;;6.78;;
79624;SDS011;69101;45.534;10.218;2023-05-21T09:36:19;12.43;;;6.50;;
79624;SDS011;69101;45.534;10.218;2023-05-21T09:38:49;12.30;;;6.43;;
79624;SDS011;69101;45.534;10.218;2023-05-21T09:41:16;12.05;;;5.88;;
79624;SDS011;69101;45.534;10.218;2023-05-21T09:43:42;12.48;;;6.40;;
79624;SDS011;69101;45.534;10.218;2023-05-21T09:46:10;13.88;;;6.30;;
79624;SDS011;69101;45.534;10.218;2023-05-21T09:48:39;12.52;;;6.05;;
79624;SDS011;69101;45.534;10.218;2023-05-21T09:51:12;13.15;;;6.05;;
79624;SDS011;69101;45.534;10.218;2023-05-21T09:53:56;15.18;;;6.70;;
79624;SDS011;69101;45.534;10.218;2023-05-21T09:56:26;14.10;;;6.60;;
79624;SDS011;69101;45.534;10.218;2023-05-21T09:58:56;12.52;;;6.22;;
79624;SDS011;69101;45.534;10.218;2023-05-21T10:01:24;15.05;;;7.00;;
79624;SDS011;69101;45.534;10.218;2023-05-21T10:03:55;14.68;;;7.32;;
79624;SDS011;69101;45.534;10.218;2023-05-21T10:06:25;14.65;;;7.13;;
79624;SDS011;69101;45.534;10.218;2023-05-21T10:08:55;12.65;;;7.10;;
79624;SDS011;69101;45.534;10.218;2023-05-21T10:11:26;13.32;;;6.53;;
79624;SDS011;69101;45.534;10.218;2023-05-21T10:14:28;15.10;;;7.00;;
79624;SDS011;69101;45.534;10.218;2023-05-21T10:16:49;12.85;;;6.85;;
79624;SDS011;69101;45.534;10.218;2023-05-21T10:19:18;14.27;;;6.80;;
79624;SDS011;69101;45.534;10.218;2023-05-21T10:21:44;12.93;;;6.75;;
79624;SDS011;69101;45.534;10.218;2023-05-21T10:24:10;13.15;;;6.22;;
79624;SDS011;69101;45.534;10.218;2023-05-21T10:26:35;13.50;;;7.38;;
79624;SDS011;69101;45.534;10.218;2023-05-21T10:29:03;13.20;;;6.45;;
79624;SDS011;69101;45.534;10.218;2023-05-21T10:31:28;12.75;;;6.60;;
79624;SDS011;69101;45.534;10.218;2023-05-21T10:33:55;13.25;;;6.70;;
79624;SDS011;69101;45.534;10.218;2023-05-21T10:36:22;14.07;;;6.47;;
79624;SDS011;69101;45.534;10.218;2023-05-21T10:38:48;14.35;;;7.18;;
79624;SDS011;69101;45.534;10.218;2023-05-21T10:41:14;13.85;;;6.63;;
79624;SDS011;69101;45.534;10.218;2023-05-21T10:43:48;14.20;;;7.03;;
79624;SDS011;69101;45.534;10.218;2023-05-21T10:57:39;13.23;;;6.70;;
79624;SDS011;69101;45.534;10.218;2023-05-21T11:00:09;13.55;;;7.00;;
79624;SDS011;69101;45.534;10.218;2023-05-21T11:02:36;13.77;;;7.50;;
79624;SDS011;69101;45.534;10.218;2023-05-21T11:05:02;13.40;;;6.63;;
79624;SDS011;69101;45.534;10.218;2023-05-21T11:10:28;14.27;;;7.93;;
79624;SDS011;69101;45.534;10.218;2023-05-21T11:18:23;14.65;;;7.40;;
79624;SDS011;69101;45.534;10.218;2023-05-21T11:21:02;13.57;;;7.55;;
79624;SDS011;69101;45.534;10.218;2023-05-21T11:23:47;14.45;;;7.00;;
79624;SDS011;69101;45.534;10.218;2023-05-21T11:26:16;14.23;;;7.53;;
79624;SDS011;69101;45.534;10.218;2023-05-21T11:28:41;14.38;;;6.80;;
79624;SDS011;69101;45.534;10.218;2023-05-21T11:31:25;13.25;;;7.05;;
79624;SDS011;69101;45.534;10.218;2023-05-21T11:36:38;12.40;;;6.55;;
79624;SDS011;69101;45.534;10.218;2023-05-21T11:47:09;14.00;;;7.25;;
79624;SDS011;69101;45.534;10.218;2023-05-21T11:49:36;14.60;;;7.50;;
79624;SDS011;69101;45.534;10.218;2023-05-21T11:52:02;14.35;;;6.90;;
79624;SDS011;69101;45.534;10.218;2023-05-21T11:54:29;13.80;;;6.72;;
79624;SDS011;69101;45.534;10.218;2023-05-21T11:57:10;14.77;;;6.90;;
79624;SDS011;69101;45.534;10.218;2023-05-21T11:59:39;14.35;;;7.13;;
79624;SDS011;69101;45.534;10.218;2023-05-21T12:02:05;13.32;;;6.90;;
79624;SDS011;69101;45.534;10.218;2023-05-21T12:04:31;13.50;;;6.70;;
79624;SDS011;69101;45.534;10.218;2023-05-21T12:07:02;13.70;;;7.32;;
79624;SDS011;69101;45.534;10.218;2023-05-21T12:09:29;13.52;;;6.82;;
79624;SDS011;69101;45.534;10.218;2023-05-21T12:11:54;13.85;;;7.22;;
79624;SDS011;69101;45.534;10.218;2023-05-21T12:14:20;13.30;;;6.78;;
79624;SDS011;69101;45.534;10.218;2023-05-21T12:16:46;12.70;;;7.13;;
79624;SDS011;69101;45.534;10.218;2023-05-21T12:19:11;13.57;;;7.63;;
79624;SDS011;69101;45.534;10.218;2023-05-21T12:21:41;13.57;;;7.68;;
79624;SDS011;69101;45.534;10.218;2023-05-21T12:24:06;15.63;;;8.02;;
79624;SDS011;69101;45.534;10.218;2023-05-21T12:26:31;13.57;;;6.80;;
79624;SDS011;69101;45.534;10.218;2023-05-21T12:28:59;13.32;;;7.13;;
79624;SDS011;69101;45.534;10.218;2023-05-21T12:31:25;14.73;;;7.35;;
79624;SDS011;69101;45.534;10.218;2023-05-21T12:33:54;15.15;;;8.13;;
79624;SDS011;69101;45.534;10.218;2023-05-21T12:36:20;14.50;;;8.00;;
79624;SDS011;69101;45.534;10.218;2023-05-21T12:38:48;14.35;;;7.70;;
79624;SDS011;69101;45.534;10.218;2023-05-21T12:41:14;14.05;;;7.45;;
79624;SDS011;69101;45.534;10.218;2023-05-21T12:43:40;14.48;;;8.13;;
79624;SDS011;69101;45.534;10.218;2023-05-21T12:46:06;14.23;;;7.80;;
79624;SDS011;69101;45.534;10.218;2023-05-21T12:48:31;15.85;;;7.43;;
79624;SDS011;69101;45.534;10.218;2023-05-21T12:50:58;13.70;;;7.28;;
79624;SDS011;69101;45.534;10.218;2023-05-21T12:53:23;14.18;;;7.13;;
79624;SDS011;69101;45.534;10.218;2023-05-21T12:55:49;14.13;;;7.35;;
79624;SDS011;69101;45.534;10.218;2023-05-21T12:58:14;15.15;;;7.20;;
79624;SDS011;69101;45.534;10.218;2023-05-21T13:00:41;13.73;;;7.70;;
79624;SDS011;69101;45.534;10.218;2023-05-21T13:03:07;14.10;;;7.47;;
79624;SDS011;69101;45.534;10.218;2023-05-21T13:05:32;13.75;;;7.45;;
79624;SDS011;69101;45.534;10.218;2023-05-21T13:07:58;13.52;;;7.30;;
79624;SDS011;69101;45.534;10.218;2023-05-21T13:10:23;12.93;;;7.20;;
79624;SDS011;69101;45.534;10.218;2023-05-21T13:12:49;13.82;;;7.55;;
79624;SDS011;69101;45.534;10.218;2023-05-21T13:15:14;13.98;;;7.40;;
79624;SDS011;69101;45.534;10.218;2023-05-21T13:17:40;15.15;;;8.07;;
79624;SDS011;69101;45.534;10.218;2023-05-21T13:22:38;13.32;;;7.45;;
79624;SDS011;69101;45.534;10.218;2023-05-21T13:25:10;14.50;;;7.65;;
79624;SDS011;69101;45.534;10.218;2023-05-21T13:27:42;13.70;;;7.72;;
79624;SDS011;69101;45.534;10.218;2023-05-21T13:30:08;14.27;;;7.55;;
79624;SDS011;69101;45.534;10.218;2023-05-21T13:32:35;13.95;;;8.13;;
79624;SDS011;69101;45.534;10.218;2023-05-21T13:35:01;14.13;;;7.90;;
79624;SDS011;69101;45.534;10.218;2023-05-21T13:37:27;14.88;;;8.30;;
79624;SDS011;69101;45.534;10.218;2023-05-21T13:39:52;14.45;;;7.80;;
79624;SDS011;69101;45.534;10.218;2023-05-21T13:42:18;14.55;;;7.88;;
79624;SDS011;69101;45.534;10.218;2023-05-21T13:44:44;13.73;;;7.35;;
79624;SDS011;69101;45.534;10.218;2023-05-21T13:47:10;14.43;;;8.73;;
79624;SDS011;69101;45.534;10.218;2023-05-21T13:49:36;14.63;;;7.65;;
79624;SDS011;69101;45.534;10.218;2023-05-21T13:52:02;13.77;;;8.18;;
79624;SDS011;69101;45.534;10.218;2023-05-21T13:54:28;14.23;;;8.00;;
79624;SDS011;69101;45.534;10.218;2023-05-21T13:56:53;13.18;;;8.00;;
79624;SDS011;69101;45.534;10.218;2023-05-21T13:59:19;13.75;;;8.27;;
79624;SDS011;69101;45.534;10.218;2023-05-21T14:01:45;13.43;;;7.40;;
79624;SDS011;69101;45.534;10.218;2023-05-21T14:04:12;14.55;;;8.10;;
79624;SDS011;69101;45.534;10.218;2023-05-21T14:06:37;14.35;;;8.10;;
79624;SDS011;69101;45.534;10.218;2023-05-21T14:09:03;14.10;;;7.45;;
79624;SDS011;69101;45.534;10.218;2023-05-21T14:11:29;14.93;;;7.85;;
79624;SDS011;69101;45.534;10.218;2023-05-21T14:13:56;13.82;;;7.35;;
79624;SDS011;69101;45.534;10.218;2023-05-21T14:16:22;13.90;;;8.13;;
79624;SDS011;69101;45.534;10.218;2023-05-21T14:18:49;13.98;;;8.13;;
79624;SDS011;69101;45.534;10.218;2023-05-21T14:21:15;14.23;;;7.40;;
79624;SDS011;69101;45.534;10.218;2023-05-21T14:23:40;14.30;;;7.88;;
79624;SDS011;69101;45.534;10.218;2023-05-21T14:26:05;13.15;;;7.38;;
79624;SDS011;69101;45.534;10.218;2023-05-21T14:28:31;13.77;;;7.40;;
79624;SDS011;69101;45.534;10.218;2023-05-21T14:30:56;12.98;;;7.13;;
79624;SDS011;69101;45.534;10.218;2023-05-21T14:33:21;14.60;;;7.88;;
79624;SDS011;69101;45.534;10.218;2023-05-21T14:35:47;13.75;;;7.60;;
79624;SDS011;69101;45.534;10.218;2023-05-21T14:38:12;14.07;;;8.10;;
79624;SDS011;69101;45.534;10.218;2023-05-21T14:40:38;15.13;;;7.57;;
79624;SDS011;69101;45.534;10.218;2023-05-21T14:43:04;13.40;;;7.63;;
79624;SDS011;69101;45.534;10.218;2023-05-21T14:45:30;13.90;;;7.47;;
79624;SDS011;69101;45.534;10.218;2023-05-21T14:47:59;14.30;;;7.43;;
79624;SDS011;69101;45.534;10.218;2023-05-21T14:50:24;13.35;;;7.30;;
79624;SDS011;69101;45.534;10.218;2023-05-21T14:52:50;14.60;;;7.55;;